Time;durP1;ratioP1;P1;durP2;ratioP2;P2;SDS_P1;SDS_P2;PMS_P1;PMS_P2;Temp;Humidity;BMP_temperature;BMP_pressure;BME280_temperature;BME280_humidity;BME280_pressure;Samples;Min_cycle;Max_cycle;Signal;HPM_P1;HPM_P2
2022/03/12 00:01:21;;;;;;;4.63;3.00;;;4.70;43.10;;;;;;4996703;28;20231;-73
2022/03/12 00:03:47;;;;;;;4.37;2.93;;;4.60;43.40;;;;;;5013189;28;20192;-74
2022/03/12 00:06:13;;;;;;;4.10;2.50;;;4.60;44.90;;;;;;4980888;28;20574;-74
2022/03/12 00:08:46;;;;;;;3.90;3.00;;;4.50;45.10;;;;;;4980659;28;20201;-74
2022/03/12 00:11:19;;;;;;;5.00;3.00;;;4.50;44.50;;;;;;4997841;28;20178;-72
2022/03/12 00:13:46;;;;;;;3.63;2.80;;;4.60;44.80;;;;;;5012957;28;20296;-74
2022/03/12 00:16:14;;;;;;;5.07;3.20;;;4.60;44.90;;;;;;5012848;28;20185;-74
2022/03/12 00:18:42;;;;;;;3.87;2.83;;;4.70;44.80;;;;;;4996712;28;20594;-74
2022/03/12 00:21:12;;;;;;;5.30;3.00;;;4.70;44.90;;;;;;4997003;28;20175;-74
2022/03/12 00:23:38;;;;;;;4.60;2.63;;;4.70;45.80;;;;;;5012736;28;20178;-74
2022/03/12 00:26:04;;;;;;;3.67;3.13;;;4.60;45.30;;;;;;5012732;28;20703;-74
2022/03/12 00:28:29;;;;;;;4.20;2.93;;;4.70;44.80;;;;;;4996283;28;20194;-74
2022/03/12 00:30:56;;;;;;;5.43;3.10;;;4.70;45.50;;;;;;4996294;28;20182;-73
2022/03/12 00:33:22;;;;;;;5.00;3.27;;;4.60;47.00;;;;;;5012555;28;20182;-74
2022/03/12 00:35:51;;;;;;;5.37;3.07;;;4.50;47.30;;;;;;5012604;28;20239;-74
2022/03/12 00:38:19;;;;;;;5.27;2.90;;;4.40;47.60;;;;;;4996106;28;20222;-74
2022/03/12 00:40:45;;;;;;;4.50;3.00;;;4.20;47.70;;;;;;5012399;28;20224;-74
2022/03/12 00:43:11;;;;;;;4.40;2.97;;;4.10;48.90;;;;;;4995774;28;20187;-74
2022/03/12 00:45:37;;;;;;;3.90;2.90;;;4.10;48.20;;;;;;5012258;28;20679;-74
2022/03/12 00:48:04;;;;;;;3.67;2.90;;;3.90;48.50;;;;;;4996305;28;20201;-74
2022/03/12 00:50:29;;;;;;;4.37;2.93;;;4.00;46.20;;;;;;4979318;28;20236;-74
2022/03/12 00:52:55;;;;;;;4.27;2.90;;;4.10;46.70;;;;;;4979676;28;20181;-74
2022/03/12 00:55:21;;;;;;;6.63;3.20;;;4.10;46.70;;;;;;4995873;28;20205;-74
2022/03/12 00:57:46;;;;;;;3.97;2.93;;;4.10;47.60;;;;;;4995764;28;20187;-74
2022/03/12 01:00:16;;;;;;;5.50;3.10;;;3.90;48.20;;;;;;4979834;28;20181;-74
2022/03/12 01:02:42;;;;;;;5.53;3.20;;;4.00;48.00;;;;;;4979574;28;20187;-74
2022/03/12 01:05:08;;;;;;;4.20;2.97;;;4.00;46.90;;;;;;5012011;28;20320;-74
2022/03/12 01:07:34;;;;;;;4.23;3.10;;;4.00;46.60;;;;;;4995729;28;20710;-74
2022/03/12 01:09:59;;;;;;;4.07;2.70;;;3.90;47.00;;;;;;4995626;28;20284;-73
2022/03/12 01:12:25;;;;;;;3.57;2.70;;;3.90;47.40;;;;;;4995611;28;20182;-74
2022/03/12 01:14:51;;;;;;;5.00;2.97;;;3.90;47.10;;;;;;4979453;28;20189;-74
2022/03/12 01:17:17;;;;;;;3.60;2.70;;;3.90;47.70;;;;;;5011980;28;20549;-74
2022/03/12 01:19:43;;;;;;;3.60;2.80;;;3.90;48.10;;;;;;4995387;28;20688;-74
2022/03/12 01:22:14;;;;;;;3.90;3.10;;;3.70;49.70;;;;;;4995189;28;20189;-73
2022/03/12 01:24:40;;;;;;;4.87;3.10;;;3.70;47.80;;;;;;5011615;28;20182;-73
2022/03/12 01:27:06;;;;;;;3.93;2.70;;;3.60;49.50;;;;;;5011919;28;20212;-74
2022/03/12 01:29:31;;;;;;;5.23;2.93;;;3.60;48.50;;;;;;4995185;28;20221;-74
2022/03/12 01:31:57;;;;;;;4.43;2.93;;;3.60;48.00;;;;;;4995217;28;20268;-74
2022/03/12 01:34:23;;;;;;;3.77;2.70;;;3.60;46.70;;;;;;4995222;28;20181;-73
2022/03/12 01:36:49;;;;;;;4.23;2.80;;;3.70;46.40;;;;;;4995207;28;20267;-73
2022/03/12 01:39:14;;;;;;;5.60;2.60;;;3.80;45.40;;;;;;5011406;28;20197;-73
2022/03/12 01:41:42;;;;;;;4.77;2.73;;;3.80;45.10;;;;;;4994869;28;20719;-73
2022/03/12 01:44:09;;;;;;;4.27;2.60;;;3.80;45.00;;;;;;5011588;28;20180;-73
2022/03/12 01:46:45;;;;;;;4.43;2.77;;;3.80;45.10;;;;;;5011370;28;20205;-73
2022/03/12 01:49:18;;;;;;;4.07;2.70;;;3.80;44.50;;;;;;5011413;28;20209;-74
2022/03/12 01:51:45;;;;;;;6.37;2.80;;;3.80;44.70;;;;;;4994976;28;20184;-74
2022/03/12 01:54:13;;;;;;;3.67;2.80;;;3.80;44.60;;;;;;4995445;28;20518;-74
2022/03/12 01:56:40;;;;;;;4.53;2.90;;;3.90;44.60;;;;;;4995010;28;20179;-73
2022/03/12 01:59:06;;;;;;;3.80;2.80;;;3.90;44.70;;;;;;5011336;28;20193;-73
2022/03/12 02:01:32;;;;;;;3.87;3.00;;;3.80;44.90;;;;;;5010911;28;20192;-74
2022/03/12 02:04:03;;;;;;;4.87;3.33;;;3.80;45.00;;;;;;5011120;28;20598;-74
2022/03/12 02:06:29;;;;;;;3.57;2.70;;;3.90;45.40;;;;;;4995487;28;20697;-74
2022/03/12 02:08:58;;;;;;;4.83;2.87;;;3.80;46.40;;;;;;5011224;28;20227;-74
2022/03/12 02:11:28;;;;;;;4.23;2.93;;;3.70;46.90;;;;;;5011136;28;20179;-74
2022/03/12 02:13:59;;;;;;;5.23;3.40;;;3.60;47.20;;;;;;4994991;28;20172;-73
2022/03/12 02:16:25;;;;;;;5.57;3.20;;;3.60;47.70;;;;;;5011172;28;20650;-73
2022/03/12 02:18:51;;;;;;;4.00;2.93;;;3.60;46.80;;;;;;5011024;23;20262;-75
2022/03/12 02:21:42;;;;;;;4.37;2.77;;;3.70;47.00;;;;;;4975235;28;20260;-76
2022/03/12 02:24:14;;;;;;;4.23;3.07;;;3.70;47.50;;;;;;4975323;28;20216;-76
2022/03/12 02:26:43;;;;;;;4.33;3.23;;;3.70;46.80;;;;;;4975198;28;20244;-76
2022/03/12 02:29:12;;;;;;;5.00;3.03;;;3.70;47.60;;;;;;4975305;28;20208;-75
2022/03/12 02:31:40;;;;;;;3.40;2.70;;;3.70;48.40;;;;;;4959227;28;20203;-75
2022/03/12 02:34:10;;;;;;;4.23;3.00;;;3.60;49.90;;;;;;4975228;28;20308;-75
2022/03/12 02:36:37;;;;;;;3.83;2.67;;;3.50;50.50;;;;;;4959648;28;20248;-75
2022/03/12 02:39:05;;;;;;;4.10;2.87;;;3.50;49.10;;;;;;4943047;28;20210;-76
2022/03/12 02:41:31;;;;;;;5.13;3.30;;;3.50;49.00;;;;;;4958883;28;20191;-76
2022/03/12 02:43:57;;;;;;;4.37;2.83;;;3.40;50.50;;;;;;4992424;28;20207;-75
2022/03/12 02:46:26;;;;;;;4.00;2.83;;;3.50;50.20;;;;;;4958847;28;20307;-75
2022/03/12 02:48:52;;;;;;;4.97;2.67;;;3.40;47.80;;;;;;4974804;28;20288;-75
2022/03/12 02:51:22;;;;;;;4.50;3.07;;;3.40;48.00;;;;;;4958851;28;20182;-75
2022/03/12 02:53:54;;;;;;;3.83;2.80;;;3.40;50.20;;;;;;4959323;28;20174;-75
2022/03/12 02:56:20;;;;;;;4.27;2.90;;;3.50;49.20;;;;;;4975053;28;20594;-75
2022/03/12 02:58:46;;;;;;;5.00;3.07;;;3.40;49.60;;;;;;4958759;28;20202;-75
2022/03/12 03:01:15;;;;;;;4.50;3.10;;;3.30;49.70;;;;;;4975085;28;20792;-75
2022/03/12 03:03:45;;;;;;;4.27;3.07;;;3.30;49.20;;;;;;4958915;28;20236;-76
2022/03/12 03:06:15;;;;;;;4.63;3.10;;;3.30;48.10;;;;;;4992323;28;20206;-76
2022/03/12 03:08:42;;;;;;;3.70;2.77;;;3.20;48.20;;;;;;4975422;28;20230;-75
2022/03/12 03:11:19;;;;;;;4.07;2.77;;;3.10;49.00;;;;;;4974714;28;20204;-75
2022/03/12 03:13:45;;;;;;;5.03;2.90;;;3.20;47.70;;;;;;4961012;28;20190;-76
2022/03/12 03:16:21;;;;;;;3.97;2.80;;;3.20;47.50;;;;;;4946460;28;20197;-75
2022/03/12 03:18:52;;;;;;;3.97;2.80;;;3.20;47.60;;;;;;4978664;28;20212;-75
2022/03/12 03:21:21;;;;;;;4.53;2.87;;;3.20;47.80;;;;;;4962377;28;20184;-75
2022/03/12 03:23:47;;;;;;;5.40;3.30;;;3.20;47.90;;;;;;4978111;28;20180;-76
2022/03/12 03:26:21;;;;;;;3.67;2.67;;;3.20;47.90;;;;;;4962249;28;20215;-75
2022/03/12 03:28:47;;;;;;;4.37;3.13;;;3.20;48.30;;;;;;4978120;28;20195;-75
2022/03/12 03:31:12;;;;;;;4.30;2.83;;;3.20;47.00;;;;;;4945839;28;20230;-75
2022/03/12 03:33:38;;;;;;;3.47;2.70;;;3.20;47.40;;;;;;4977796;28;20234;-75
2022/03/12 03:36:04;;;;;;;4.17;3.33;;;3.20;47.10;;;;;;4994054;28;20262;-76
2022/03/12 03:38:30;;;;;;;3.57;2.80;;;3.20;45.10;;;;;;4962101;28;20196;-75
2022/03/12 03:40:56;;;;;;;3.67;2.63;;;3.20;45.20;;;;;;4961669;28;20725;-75
2022/03/12 03:43:24;;;;;;;4.53;2.50;;;3.20;44.50;;;;;;4945817;28;20271;-75
2022/03/12 03:45:52;;;;;;;3.37;2.50;;;3.30;44.50;;;;;;4995056;28;20287;-75
2022/03/12 03:48:20;;;;;;;4.77;2.87;;;3.20;44.90;;;;;;4977543;28;20175;-75
2022/03/12 03:50:47;;;;;;;3.40;2.50;;;3.20;44.70;;;;;;4961864;28;20176;-75
2022/03/12 03:53:16;;;;;;;5.53;3.20;;;3.20;45.10;;;;;;4977751;28;20537;-75
2022/03/12 03:55:42;;;;;;;4.73;2.83;;;3.20;45.50;;;;;;4961683;28;20176;-75
2022/03/12 03:58:10;;;;;;;5.13;2.90;;;3.20;46.10;;;;;;4945497;28;20176;-75
2022/03/12 04:00:36;;;;;;;4.47;3.27;;;3.20;45.20;;;;;;4961709;28;20185;-75
2022/03/12 04:03:02;;;;;;;3.97;2.77;;;3.20;44.90;;;;;;4961058;28;20186;-75
2022/03/12 04:05:32;;;;;;;4.20;2.93;;;3.20;44.60;;;;;;4977222;28;20663;-75
2022/03/12 04:07:59;;;;;;;4.57;2.97;;;3.20;44.70;;;;;;4977538;28;20205;-76
2022/03/12 04:10:25;;;;;;;3.90;2.93;;;3.20;44.90;;;;;;4961745;28;20172;-75
2022/03/12 04:12:51;;;;;;;4.80;2.73;;;3.20;45.20;;;;;;4945068;28;20176;-75
2022/03/12 04:15:17;;;;;;;4.43;2.90;;;3.20;45.20;;;;;;4961166;28;20176;-75
2022/03/12 04:17:44;;;;;;;4.43;3.00;;;3.20;45.40;;;;;;4994550;28;20252;-76
2022/03/12 04:20:18;;;;;;;4.57;3.20;;;3.20;45.70;;;;;;4961272;28;20209;-75
2022/03/12 04:22:44;;;;;;;4.70;2.90;;;3.20;46.10;;;;;;4994613;28;20198;-75
2022/03/12 04:25:13;;;;;;;4.87;3.00;;;3.20;46.40;;;;;;4977017;28;20265;-75
2022/03/12 04:27:42;;;;;;;7.47;3.20;;;3.10;46.70;;;;;;4961147;28;20180;-75
2022/03/12 04:30:09;;;;;;;4.93;3.00;;;3.10;47.00;;;;;;4945665;28;20218;-75
2022/03/12 04:32:35;;;;;;;4.40;3.03;;;3.10;47.50;;;;;;4994365;28;20168;-75
2022/03/12 04:35:01;;;;;;;5.10;3.00;;;3.10;47.50;;;;;;4976871;28;20259;-75
2022/03/12 04:37:27;;;;;;;5.57;3.13;;;3.00;48.00;;;;;;4960929;28;20184;-75
2022/03/12 04:39:53;;;;;;;3.47;2.90;;;3.00;48.50;;;;;;4960735;28;20204;-75
2022/03/12 04:42:21;;;;;;;4.80;3.20;;;3.00;48.60;;;;;;4960483;28;20682;-75
2022/03/12 04:44:47;;;;;;;5.13;3.37;;;3.00;47.60;;;;;;4993075;28;20603;-75
2022/03/12 04:47:17;;;;;;;5.23;3.07;;;3.00;47.60;;;;;;4960733;28;20237;-76
2022/03/12 04:49:42;;;;;;;4.53;2.93;;;3.10;47.00;;;;;;4993907;28;20189;-75
2022/03/12 04:52:11;;;;;;;4.53;3.23;;;3.00;46.60;;;;;;4993800;28;20225;-75
2022/03/12 04:54:36;;;;;;;5.07;3.27;;;3.00;46.60;;;;;;4976794;28;20172;-75
2022/03/12 04:57:03;;;;;;;3.20;2.70;;;3.00;46.60;;;;;;4993772;28;20678;-75
2022/03/12 04:59:28;;;;;;;5.67;3.00;;;3.00;46.10;;;;;;4944426;28;20201;-75
2022/03/12 05:01:54;;;;;;;5.40;3.03;;;3.00;45.70;;;;;;4960316;28;20190;-75
2022/03/12 05:04:20;;;;;;;4.43;3.10;;;3.10;46.00;;;;;;4944482;28;20187;-75
2022/03/12 05:06:45;;;;;;;5.57;3.10;;;3.00;45.90;;;;;;4976163;28;20774;-75
2022/03/12 05:09:11;;;;;;;4.73;2.80;;;3.00;46.00;;;;;;4960097;28;20201;-75
2022/03/12 05:11:38;;;;;;;3.93;2.83;;;3.10;46.10;;;;;;4943950;28;20654;-75
2022/03/12 05:14:10;;;;;;;4.07;3.17;;;3.10;46.50;;;;;;4960744;28;20173;-75
2022/03/12 05:16:36;;;;;;;4.13;3.30;;;3.10;46.90;;;;;;4960338;28;20200;-75
2022/03/12 05:19:06;;;;;;;4.67;3.10;;;3.00;46.90;;;;;;4975931;28;20231;-75
2022/03/12 05:21:32;;;;;;;4.93;2.90;;;3.00;47.30;;;;;;4961188;28;20176;-75
2022/03/12 05:23:58;;;;;;;4.27;3.13;;;3.00;47.60;;;;;;4960051;28;20267;-75
2022/03/12 05:26:24;;;;;;;6.47;3.30;;;3.00;47.20;;;;;;4959762;28;20219;-75
2022/03/12 05:28:49;;;;;;;5.37;3.57;;;3.00;47.20;;;;;;4959953;28;20583;-75
2022/03/12 05:31:16;;;;;;;5.17;3.43;;;3.10;47.20;;;;;;4943763;28;20172;-75
2022/03/12 05:33:43;;;;;;;4.83;3.27;;;3.10;47.60;;;;;;4959885;28;20176;-75
2022/03/12 05:36:09;;;;;;;4.30;3.17;;;3.00;48.40;;;;;;4975326;28;20175;-75
2022/03/12 05:38:36;;;;;;;4.50;3.37;;;3.00;48.20;;;;;;4975539;28;20191;-75
2022/03/12 05:41:10;;;;;;;3.93;2.83;;;3.00;49.70;;;;;;4960279;28;20175;-75
2022/03/12 05:43:41;;;;;;;6.23;3.53;;;3.10;48.30;;;;;;4975694;28;20609;-76
2022/03/12 05:46:07;;;;;;;5.20;3.60;;;3.10;49.00;;;;;;4976507;28;20201;-76
2022/03/12 05:48:32;;;;;;;5.40;3.70;;;3.10;50.30;;;;;;4993046;28;20212;-76
2022/03/12 05:50:59;;;;;;;4.47;3.20;;;3.00;51.00;;;;;;4943615;28;20180;-75
2022/03/12 05:53:25;;;;;;;4.40;2.90;;;3.00;50.20;;;;;;4959427;28;20180;-76
2022/03/12 05:55:51;;;;;;;4.40;3.37;;;3.00;50.90;;;;;;4975631;28;20176;-76
2022/03/12 05:58:19;;;;;;;4.63;3.33;;;2.90;50.90;;;;;;4975591;28;20179;-75
2022/03/12 06:00:45;;;;;;;4.40;3.10;;;3.00;52.10;;;;;;4959681;28;20705;-76
2022/03/12 06:03:11;;;;;;;5.10;3.30;;;3.00;52.70;;;;;;4975292;28;20267;-76
2022/03/12 06:05:40;;;;;;;4.17;3.30;;;2.80;53.80;;;;;;4975562;28;20282;-75
2022/03/12 06:08:07;;;;;;;6.60;3.10;;;2.80;54.70;;;;;;4959503;28;20198;-75
2022/03/12 06:10:34;;;;;;;4.90;3.67;;;2.70;54.40;;;;;;4975574;28;20512;-76
2022/03/12 06:13:00;;;;;;;4.80;3.37;;;2.70;56.00;;;;;;4959141;28;20705;-76
2022/03/12 06:15:27;;;;;;;5.83;3.00;;;2.70;56.90;;;;;;4959523;28;20180;-75
2022/03/12 06:17:54;;;;;;;3.80;2.90;;;2.60;58.30;;;;;;4975429;28;20183;-75
2022/03/12 06:20:21;;;;;;;4.63;3.30;;;2.50;60.20;;;;;;4974990;28;20207;-75
2022/03/12 06:22:52;;;;;;;4.63;3.40;;;2.40;62.00;;;;;;4974851;28;20267;-75
2022/03/12 06:25:19;;;;;;;4.20;3.03;;;2.40;64.20;;;;;;4975759;28;20172;-75
2022/03/12 06:27:53;;;;;;;4.90;3.33;;;2.30;64.70;;;;;;4959116;28;20185;-75
2022/03/12 06:30:21;;;;;;;5.20;3.70;;;2.30;63.40;;;;;;4975161;28;20235;-75
2022/03/12 06:32:48;;;;;;;5.00;3.60;;;2.30;65.40;;;;;;4959112;28;20181;-76
2022/03/12 06:35:15;;;;;;;5.63;3.23;;;2.30;67.30;;;;;;4959206;28;20216;-75
2022/03/12 06:37:41;;;;;;;5.43;3.40;;;2.20;70.60;;;;;;4975308;28;20174;-76
2022/03/12 06:40:08;;;;;;;4.67;3.17;;;2.30;71.00;;;;;;4959132;28;20200;-76
2022/03/12 06:42:36;;;;;;;4.00;3.00;;;2.20;70.30;;;;;;4974919;28;20188;-75
2022/03/12 06:45:02;;;;;;;4.53;3.17;;;2.30;72.70;;;;;;4974341;28;20181;-75
2022/03/12 06:47:33;;;;;;;4.17;3.17;;;2.30;72.50;;;;;;4958812;28;20209;-75
2022/03/12 06:50:01;;;;;;;4.27;3.10;;;2.40;73.20;;;;;;4978743;28;20207;-75
2022/03/12 06:52:29;;;;;;;4.57;3.10;;;2.40;79.70;;;;;;4963017;28;20208;-76
2022/03/12 06:54:56;;;;;;;4.70;3.10;;;2.30;84.50;;;;;;4978928;28;20239;-75
2022/03/12 06:57:22;;;;;;;5.90;3.43;;;2.30;87.30;;;;;;4994886;28;20227;-75
2022/03/12 06:59:47;;;;;;;6.13;3.10;;;2.30;89.10;;;;;;4994780;28;20219;-75
2022/03/12 07:02:13;;;;;;;5.63;3.30;;;2.40;90.00;;;;;;4978569;28;20196;-76
2022/03/12 07:04:39;;;;;;;4.20;3.37;;;2.40;93.20;;;;;;4962497;28;20190;-75
2022/03/12 07:07:05;;;;;;;4.70;3.17;;;2.40;94.80;;;;;;4978438;28;20214;-75
2022/03/12 07:09:31;;;;;;;4.63;3.57;;;2.40;95.20;;;;;;4978394;28;20200;-75
2022/03/12 07:11:58;;;;;;;5.40;3.03;;;2.50;95.50;;;;;;4962021;28;20671;-76
2022/03/12 07:14:27;;;;;;;3.47;2.60;;;2.50;94.30;;;;;;4978257;28;20187;-75
2022/03/12 07:16:54;;;;;;;3.43;2.67;;;2.70;99.90;;;;;;4994774;28;20188;-74
2022/03/12 07:19:20;;;;;;;4.60;2.97;;;3.70;99.90;;;;;;4978166;28;20218;-75
2022/03/12 07:21:45;;;;;;;4.43;2.97;;;4.60;99.90;;;;;;4977978;28;20179;-75
2022/03/12 07:24:12;;;;;;;3.90;3.20;;;5.20;99.90;;;;;;4961936;28;20191;-76
2022/03/12 07:26:39;;;;;;;4.50;3.10;;;5.60;99.90;;;;;;4994267;28;20203;-75
2022/03/12 07:29:05;;;;;;;6.07;3.33;;;5.70;99.90;;;;;;4978197;28;20205;-75
2022/03/12 07:31:30;;;;;;;3.70;3.10;;;5.80;99.90;;;;;;4961778;28;20180;-75
2022/03/12 07:33:56;;;;;;;5.67;3.20;;;5.80;99.90;;;;;;4978058;28;20190;-75
2022/03/12 07:36:21;;;;;;;5.17;3.43;;;5.90;98.60;;;;;;4961892;28;20187;-75
2022/03/12 07:38:47;;;;;;;5.90;3.53;;;5.70;92.90;;;;;;4962087;28;20200;-76
2022/03/12 07:41:13;;;;;;;5.70;3.90;;;5.20;95.10;;;;;;4995291;28;20180;-76
2022/03/12 07:43:39;;;;;;;4.63;3.90;;;4.80;96.90;;;;;;4945685;28;20329;-76
2022/03/12 07:46:05;;;;;;;6.17;4.43;;;4.60;97.80;;;;;;4977571;28;20697;-76
2022/03/12 07:48:31;;;;;;;5.97;4.03;;;4.40;97.60;;;;;;4977833;28;20198;-76
2022/03/12 07:50:58;;;;;;;6.67;4.23;;;4.30;97.70;;;;;;4961607;28;20207;-76
2022/03/12 07:53:24;;;;;;;5.40;3.90;;;4.30;98.20;;;;;;4961667;28;20314;-77
2022/03/12 07:55:50;;;;;;;6.17;4.30;;;4.30;96.70;;;;;;4977515;28;20269;-77
2022/03/12 07:58:15;;;;;;;7.13;4.07;;;4.30;96.00;;;;;;4961454;28;20260;-76
2022/03/12 08:00:41;;;;;;;5.23;3.90;;;4.30;94.80;;;;;;4961030;28;20195;-76
2022/03/12 08:03:07;;;;;;;5.30;3.67;;;4.40;91.70;;;;;;4993493;28;20253;-76
2022/03/12 08:05:33;;;;;;;5.73;3.73;;;4.50;88.00;;;;;;4977453;28;20186;-76
2022/03/12 08:08:00;;;;;;;7.13;4.10;;;4.50;86.90;;;;;;4961616;28;20233;-77
2022/03/12 08:10:26;;;;;;;6.10;4.20;;;4.50;86.90;;;;;;4961593;28;20205;-76
2022/03/12 08:12:52;;;;;;;6.17;3.80;;;4.60;85.50;;;;;;4961091;28;20181;-76
2022/03/12 08:15:20;;;;;;;6.30;4.27;;;4.70;84.90;;;;;;4977482;28;20171;-76
2022/03/12 08:17:47;;;;;;;7.03;3.83;;;4.70;82.40;;;;;;4961732;28;20228;-76
2022/03/12 08:20:13;;;;;;;6.40;4.07;;;4.80;82.50;;;;;;5037622;23;20253;-77
2022/03/12 08:22:43;;;;;;;6.60;4.20;;;4.90;81.70;;;;;;5032639;28;20257;-77
2022/03/12 08:25:11;;;;;;;5.07;3.77;;;5.00;81.30;;;;;;5033185;28;20549;-77
2022/03/12 08:27:37;;;;;;;5.97;4.10;;;5.10;79.60;;;;;;5032563;28;20210;-77
2022/03/12 08:30:07;;;;;;;6.50;4.60;;;5.20;79.60;;;;;;5049154;28;20245;-77
2022/03/12 08:32:35;;;;;;;8.20;4.20;;;5.30;78.20;;;;;;5032545;28;20556;-77
2022/03/12 08:35:00;;;;;;;8.13;4.23;;;5.40;77.60;;;;;;5016252;28;20728;-77
2022/03/12 08:37:26;;;;;;;5.00;3.80;;;5.60;77.20;;;;;;5015957;28;20256;-77
2022/03/12 08:39:52;;;;;;;5.83;3.97;;;5.70;76.40;;;;;;4999474;28;20205;-77
2022/03/12 08:42:17;;;;;;;6.63;4.07;;;5.90;77.20;;;;;;5015606;28;20190;-77
2022/03/12 08:44:43;;;;;;;5.70;4.17;;;6.10;74.80;;;;;;5032308;28;20178;-77
2022/03/12 08:47:09;;;;;;;6.30;4.33;;;6.20;73.50;;;;;;5015747;28;20419;-77
2022/03/12 08:49:35;;;;;;;5.70;4.27;;;6.40;72.10;;;;;;5032233;28;20201;-77
2022/03/12 08:52:01;;;;;;;6.87;4.73;;;6.50;71.90;;;;;;4999374;28;20170;-77
2022/03/12 08:54:27;;;;;;;7.30;4.50;;;6.60;72.00;;;;;;5032019;28;20174;-77
2022/03/12 08:56:52;;;;;;;6.73;4.40;;;6.70;73.80;;;;;;4998931;28;20230;-77
2022/03/12 08:59:18;;;;;;;7.83;4.63;;;7.00;74.60;;;;;;5015581;28;20293;-77
2022/03/12 09:01:46;;;;;;;8.13;4.40;;;7.20;71.80;;;;;;4999245;28;20183;-77
2022/03/12 09:04:12;;;;;;;6.63;4.50;;;7.40;74.60;;;;;;5015458;28;20529;-77
2022/03/12 09:06:38;;;;;;;6.00;4.30;;;7.50;71.00;;;;;;5015422;28;20206;-77
2022/03/12 09:09:04;;;;;;;6.43;4.50;;;7.70;71.80;;;;;;5015577;28;20199;-78
2022/03/12 09:11:29;;;;;;;6.60;4.83;;;7.90;72.40;;;;;;5014765;28;20235;-77
2022/03/12 09:13:55;;;;;;;6.07;4.30;;;8.00;70.20;;;;;;5015553;28;20195;-79
2022/03/12 09:16:22;;;;;;;7.77;4.50;;;8.10;71.20;;;;;;5031907;28;20176;-77
2022/03/12 09:18:48;;;;;;;8.60;4.70;;;8.30;70.10;;;;;;4998856;28;20209;-77
2022/03/12 09:21:14;;;;;;;7.23;4.70;;;8.30;69.60;;;;;;5031500;28;20283;-77
2022/03/12 09:23:40;;;;;;;7.17;4.80;;;8.40;69.10;;;;;;5015086;28;20614;-78
2022/03/12 09:26:06;;;;;;;5.67;4.37;;;8.60;69.40;;;;;;5031435;28;20675;-77
2022/03/12 09:28:32;;;;;;;6.97;5.00;;;8.70;69.50;;;;;;5015172;28;20181;-77
2022/03/12 09:30:58;;;;;;;6.97;4.97;;;8.70;70.00;;;;;;5031780;28;20170;-77
2022/03/12 09:33:24;;;;;;;7.20;4.80;;;8.90;69.40;;;;;;5014986;28;20178;-77
2022/03/12 09:35:51;;;;;;;7.53;4.47;;;9.00;69.50;;;;;;5014910;28;20326;-77
2022/03/12 09:38:17;;;;;;;7.50;4.73;;;9.10;70.70;;;;;;5031029;28;20208;-77
2022/03/12 09:40:44;;;;;;;6.93;4.70;;;9.40;71.00;;;;;;5031145;28;20205;-77
2022/03/12 09:43:11;;;;;;;6.07;4.37;;;9.50;70.40;;;;;;5014875;28;20217;-77
2022/03/12 09:45:37;;;;;;;6.63;4.73;;;9.70;72.20;;;;;;5014952;28;20560;-77
2022/03/12 09:48:03;;;;;;;6.43;4.70;;;9.80;70.60;;;;;;5031267;28;20645;-77
2022/03/12 09:50:29;;;;;;;7.07;4.80;;;9.90;69.60;;;;;;5031084;28;20712;-77
2022/03/12 09:52:55;;;;;;;9.80;4.90;;;10.20;69.90;;;;;;5014720;28;20175;-77
2022/03/12 09:55:21;;;;;;;7.00;4.83;;;10.20;70.00;;;;;;5014927;28;20171;-78
2022/03/12 09:57:48;;;;;;;6.60;5.00;;;10.00;69.70;;;;;;4998928;28;20188;-76
2022/03/12 10:00:15;;;;;;;8.50;5.00;;;10.00;70.30;;;;;;5014644;28;20207;-77
2022/03/12 10:02:41;;;;;;;7.30;4.93;;;10.00;70.80;;;;;;4997992;28;20710;-77
2022/03/12 10:05:11;;;;;;;7.27;5.03;;;10.00;71.80;;;;;;5014531;28;20649;-76
2022/03/12 10:07:37;;;;;;;6.77;5.00;;;10.20;72.00;;;;;;5030808;28;20198;-78
2022/03/12 10:10:03;;;;;;;7.30;5.23;;;10.50;71.40;;;;;;4998326;28;20224;-77
2022/03/12 10:12:29;;;;;;;7.90;4.87;;;10.80;72.80;;;;;;5014692;28;20189;-77
2022/03/12 10:14:55;;;;;;;6.90;4.87;;;11.00;71.50;;;;;;5031231;28;20202;-78
2022/03/12 10:17:20;;;;;;;6.23;4.77;;;11.10;74.20;;;;;;4998297;28;20280;-77
2022/03/12 10:19:46;;;;;;;7.53;5.27;;;11.40;71.30;;;;;;4998259;28;20252;-77
2022/03/12 10:22:12;;;;;;;7.17;4.63;;;11.50;70.40;;;;;;4998799;28;20185;-77
2022/03/12 10:24:38;;;;;;;7.20;5.07;;;11.70;70.20;;;;;;5034982;28;20176;-77
2022/03/12 10:27:07;;;;;;;7.27;5.13;;;11.70;69.90;;;;;;5018415;28;20228;-77
2022/03/12 10:29:34;;;;;;;7.27;5.27;;;11.80;69.80;;;;;;5018830;28;20194;-77
2022/03/12 10:32:21;;;;;;;8.00;4.93;;;11.90;69.40;;;;;;5001905;28;20227;-77
2022/03/12 10:34:52;;;;;;;7.70;5.00;;;12.00;70.40;;;;;;5035006;28;20248;-77
2022/03/12 10:37:20;;;;;;;9.50;5.23;;;11.90;69.40;;;;;;5019026;28;20201;-77
2022/03/12 10:39:46;;;;;;;7.27;4.93;;;12.00;70.50;;;;;;5002460;28;20201;-77
2022/03/12 10:42:13;;;;;;;5.87;4.90;;;12.20;70.40;;;;;;5001907;28;20608;-77
2022/03/12 10:44:40;;;;;;;7.60;5.27;;;12.40;73.10;;;;;;5034736;28;20181;-78
2022/03/12 10:47:18;;;;;;;9.17;5.50;;;12.60;70.70;;;;;;5034424;28;20194;-76
2022/03/12 10:49:58;;;;;;;6.57;5.20;;;12.80;71.50;;;;;;5034565;28;20233;-78
2022/03/12 10:52:27;;;;;;;7.33;5.17;;;12.90;70.70;;;;;;5018392;28;20182;-75
2022/03/12 10:54:53;;;;;;;6.50;5.37;;;13.10;71.10;;;;;;5018315;28;20209;-75
2022/03/12 10:57:19;;;;;;;7.07;5.43;;;12.90;68.50;;;;;;5034597;28;20651;-74
2022/03/12 10:59:45;;;;;;;12.13;5.57;;;13.00;67.40;;;;;;5034257;28;20300;-76
2022/03/12 11:02:11;;;;;;;6.10;4.93;;;13.10;68.70;;;;;;5034198;28;20206;-75
2022/03/12 11:04:37;;;;;;;6.20;5.23;;;13.40;69.60;;;;;;5034252;28;20264;-76
2022/03/12 11:07:27;;;;;;;7.37;5.50;;;13.60;70.70;;;;;;5034276;28;20336;-76
2022/03/12 11:09:54;;;;;;;9.07;5.87;;;13.50;67.70;;;;;;5017846;28;20194;-76
2022/03/12 11:12:29;;;;;;;7.10;4.87;;;13.40;68.50;;;;;;5034014;28;20261;-75
2022/03/12 11:15:04;;;;;;;6.80;5.00;;;13.10;70.00;;;;;;5034134;28;20170;-76
2022/03/12 11:17:43;;;;;;;6.90;5.23;;;13.10;70.50;;;;;;5033841;28;20178;-75
2022/03/12 11:20:17;;;;;;;7.57;5.43;;;13.20;69.80;;;;;;5033715;28;20205;-76
2022/03/12 11:22:46;;;;;;;7.00;5.23;;;13.20;70.80;;;;;;5001748;28;20178;-75
2022/03/12 11:25:14;;;;;;;6.63;4.93;;;13.20;70.90;;;;;;5018055;28;20183;-76
2022/03/12 11:27:41;;;;;;;6.50;5.03;;;13.20;69.90;;;;;;5033632;28;20569;-76
2022/03/12 11:30:09;;;;;;;8.27;5.17;;;13.30;68.80;;;;;;5017495;28;20206;-76
2022/03/12 11:32:42;;;;;;;7.27;5.10;;;13.40;66.80;;;;;;5017219;28;20179;-75
2022/03/12 11:35:10;;;;;;;7.83;5.17;;;13.50;64.30;;;;;;5016897;28;20193;-76
2022/03/12 11:37:41;;;;;;;6.93;5.00;;;13.50;65.00;;;;;;5033693;28;20179;-74
2022/03/12 11:40:11;;;;;;;6.00;4.90;;;13.50;62.90;;;;;;5033548;28;20229;-75
2022/03/12 11:42:38;;;;;;;7.87;5.07;;;14.00;66.10;;;;;;5033244;28;20177;-75
2022/03/12 11:45:16;;;;;;;6.17;5.07;;;14.40;60.90;;;;;;5017013;28;20208;-75
2022/03/12 11:47:43;;;;;;;5.77;4.73;;;14.70;60.00;;;;;;5017357;28;20248;-75
2022/03/12 11:50:13;;;;;;;6.03;4.63;;;14.70;61.40;;;;;;5016901;28;20198;-75
2022/03/12 11:52:41;;;;;;;7.70;4.87;;;14.60;58.90;;;;;;5000844;28;20178;-76
2022/03/12 11:55:17;;;;;;;5.73;4.90;;;14.50;58.90;;;;;;5033317;28;20649;-75
2022/03/12 11:57:46;;;;;;;6.27;5.13;;;14.70;59.20;;;;;;5033294;28;20180;-76
2022/03/12 12:00:23;;;;;;;6.20;4.90;;;14.60;57.40;;;;;;5000760;28;20210;-76
2022/03/12 12:02:49;;;;;;;6.57;5.30;;;14.50;56.50;;;;;;5032970;28;20486;-76
2022/03/12 12:05:17;;;;;;;5.73;5.00;;;14.70;59.10;;;;;;5016709;28;20269;-76
2022/03/12 12:07:47;;;;;;;6.50;4.67;;;14.80;58.60;;;;;;5034087;28;20691;-75
2022/03/12 12:10:18;;;;;;;6.90;5.10;;;14.80;56.90;;;;;;5017030;28;20256;-76
2022/03/12 12:12:46;;;;;;;6.53;5.10;;;14.70;58.60;;;;;;5032712;28;20197;-75
2022/03/12 12:15:22;;;;;;;6.63;5.20;;;14.80;58.20;;;;;;5000427;28;20261;-76
2022/03/12 12:17:48;;;;;;;6.57;5.00;;;14.70;58.00;;;;;;5034046;28;20167;-76
2022/03/12 12:20:16;;;;;;;8.37;5.70;;;14.80;58.40;;;;;;5034045;28;20210;-75
2022/03/12 12:22:43;;;;;;;7.27;5.10;;;14.80;60.40;;;;;;5033133;28;20174;-77
2022/03/12 12:25:09;;;;;;;7.70;5.27;;;15.00;61.00;;;;;;5017111;28;20569;-77
2022/03/12 12:27:52;;;;;;;6.80;5.40;;;15.30;60.60;;;;;;5019458;28;20198;-81
2022/03/12 12:30:38;;;;;;;6.97;5.17;;;15.40;62.10;;;;;;5000779;28;20201;-81
2022/03/12 12:33:26;;;;;;;6.37;5.00;;;15.50;60.80;;;;;;5033293;28;20171;-79
2022/03/12 12:36:13;;;;;;;7.63;5.10;;;15.50;59.20;;;;;;5033105;28;20171;-79
2022/03/12 12:38:43;;;;;;;6.13;5.00;;;15.70;59.40;;;;;;5016399;28;20198;-79
2022/03/12 12:41:10;;;;;;;5.63;4.87;;;15.40;58.40;;;;;;5016894;28;20182;-79
2022/03/12 12:43:46;;;;;;;7.30;5.33;;;15.80;60.20;;;;;;5016205;28;20206;-80
2022/03/12 12:46:17;;;;;;;8.90;5.50;;;15.90;58.70;;;;;;5031539;28;20205;-80
2022/03/12 12:48:48;;;;;;;11.27;5.40;;;16.10;59.00;;;;;;5032353;28;20559;-79
2022/03/12 12:51:22;;;;;;;5.77;4.80;;;16.10;57.40;;;;;;5016149;28;20174;-79
2022/03/12 12:53:53;;;;;;;6.40;5.47;;;16.00;57.20;;;;;;5032438;28;20181;-80
2022/03/12 12:56:23;;;;;;;7.27;5.53;;;16.10;56.50;;;;;;4999642;28;20225;-79
2022/03/12 12:58:51;;;;;;;9.50;4.93;;;16.00;57.30;;;;;;5032290;28;20293;-79